createdAt,value
2022-11-05T00:06:20.985Z,9.13
2022-11-05T00:16:40.524Z,9.07
2022-11-05T00:26:41.721Z,9.11
2022-11-05T00:36:42.826Z,9.08
2022-11-05T00:46:44.115Z,9.16
2022-11-05T00:56:45.305Z,9.20
2022-11-05T01:06:46.428Z,9.13
2022-11-05T01:16:47.513Z,9.24
2022-11-05T01:26:48.848Z,9.12
2022-11-05T01:36:49.952Z,9.06
2022-11-05T01:46:51.098Z,9.04
2022-11-05T01:56:56.753Z,9.07
2022-11-05T02:06:58.822Z,9.09
2022-11-05T02:17:44.240Z,9.11
2022-11-05T02:27:48.700Z,9.08
2022-11-05T02:38:01.630Z,9.02
2022-11-05T02:48:25.774Z,8.86
2022-11-05T02:58:28.472Z,8.85
2022-11-05T03:08:35.611Z,8.71
2022-11-05T03:18:42.421Z,8.57
2022-11-05T03:28:48.747Z,8.55
2022-11-05T03:38:54.033Z,8.52
2022-11-05T03:48:58.525Z,8.57
2022-11-05T03:59:02.093Z,8.50
2022-11-05T04:09:22.583Z,8.54
2022-11-05T04:19:42.091Z,8.53
2022-11-05T04:30:01.734Z,8.56
2022-11-05T04:40:03.125Z,8.64
2022-11-05T04:50:04.418Z,8.55
2022-11-05T05:00:09.157Z,8.41
2022-11-05T05:10:11.133Z,8.42
2022-11-05T05:20:30.950Z,8.36
2022-11-05T05:30:32.156Z,8.34
2022-11-05T05:40:33.269Z,8.30
2022-11-05T05:50:34.453Z,8.37
2022-11-05T06:00:41.450Z,8.36
2022-11-05T06:10:42.626Z,8.51
2022-11-05T06:20:43.817Z,8.55
2022-11-05T06:30:51.284Z,8.64
2022-11-05T06:40:52.527Z,8.71
2022-11-05T06:50:54.199Z,8.70
2022-11-05T07:00:59.960Z,8.90
2022-11-05T07:11:03.020Z,9.04
2022-11-05T07:21:04.292Z,9.24
2022-11-05T07:31:05.465Z,9.43
2022-11-05T07:41:06.633Z,9.59
2022-11-05T07:51:07.726Z,9.90
2022-11-05T08:01:09.163Z,10.00
2022-11-05T08:11:11.726Z,10.49
2022-11-05T08:21:12.979Z,10.64
2022-11-05T08:31:15.484Z,10.75
2022-11-05T08:41:17.647Z,10.89
2022-11-05T08:51:19.117Z,10.76
2022-11-05T09:01:20.518Z,10.53
2022-11-05T09:11:21.679Z,10.43
2022-11-05T09:21:22.909Z,10.61
2022-11-05T09:31:24.065Z,10.89
2022-11-05T09:41:31.342Z,11.22
2022-11-05T09:51:35.709Z,10.86
2022-11-05T10:01:38.312Z,10.70
2022-11-05T10:11:51.285Z,10.71
2022-11-05T10:22:08.676Z,10.64
2022-11-05T10:32:14.849Z,10.42
2022-11-05T10:42:37.086Z,10.34
2022-11-05T10:52:53.312Z,10.27
2022-11-05T11:03:00.658Z,10.04
2022-11-05T11:13:01.895Z,10.07
2022-11-05T11:23:07.360Z,10.21
2022-11-05T11:33:11.554Z,10.12
2022-11-05T11:43:34.180Z,10.05
2022-11-05T11:53:35.680Z,9.95
2022-11-05T12:03:45.961Z,9.96
2022-11-05T12:14:00.211Z,9.80
2022-11-05T12:24:15.814Z,9.40
2022-11-05T12:34:29.352Z,9.39
2022-11-05T12:44:44.468Z,9.19
2022-11-05T12:55:06.342Z,9.26
2022-11-05T13:05:25.394Z,9.07
2022-11-05T13:15:37.479Z,8.98
2022-11-05T13:25:46.244Z,8.96
2022-11-05T13:36:23.210Z,8.82
2022-11-05T13:47:01.946Z,8.60
2022-11-05T13:57:34.474Z,8.57
2022-11-05T14:07:43.657Z,8.45
2022-11-05T14:18:03.300Z,8.57
2022-11-05T14:28:46.140Z,8.71
2022-11-05T14:38:52.893Z,8.85
2022-11-05T14:49:03.872Z,8.89
2022-11-05T14:59:21.746Z,8.89
2022-11-05T15:09:26.496Z,8.97
2022-11-05T15:19:33.709Z,8.94
2022-11-05T15:29:35.055Z,8.89
2022-11-05T15:39:45.495Z,8.88
2022-11-05T15:50:08.614Z,8.98
2022-11-05T16:00:28.112Z,9.07
2022-11-05T16:10:37.264Z,9.07
2022-11-05T16:20:38.862Z,9.01
2022-11-05T16:30:50.543Z,9.08
2022-11-05T16:40:51.933Z,9.14
2022-11-05T16:50:53.627Z,9.13
2022-11-05T17:01:11.265Z,9.07
2022-11-05T17:11:15.419Z,8.95
2022-11-05T17:21:16.739Z,9.01
2022-11-05T17:31:18.066Z,9.05
2022-11-05T17:41:22.420Z,9.07
2022-11-05T17:51:23.653Z,8.95
2022-11-05T18:01:35.003Z,8.95
2022-11-05T18:11:37.347Z,9.06
2022-11-05T18:21:40.044Z,9.18
2022-11-05T18:31:41.305Z,9.24
2022-11-05T18:41:42.684Z,9.19
2022-11-05T18:51:44.327Z,9.21
2022-11-05T19:01:46.938Z,9.27
2022-11-05T19:11:48.410Z,9.29
2022-11-05T19:21:53.838Z,9.13
2022-11-05T19:31:55.350Z,8.99
2022-11-05T19:42:03.004Z,9.04
2022-11-05T19:52:06.633Z,9.19
2022-11-05T20:02:15.833Z,9.30
2022-11-05T20:12:17.775Z,9.32
2022-11-05T20:22:19.146Z,9.17
2022-11-05T20:32:20.604Z,9.18
2022-11-05T20:42:22.048Z,9.21
2022-11-05T20:52:23.629Z,9.25
2022-11-05T21:02:25.116Z,9.20
2022-11-05T21:12:26.894Z,9.09
2022-11-05T21:22:28.301Z,9.05
2022-11-05T21:32:29.720Z,9.09
2022-11-05T21:42:31.601Z,9.16
2022-11-05T21:52:51.831Z,9.17
2022-11-05T22:02:53.678Z,9.09
2022-11-05T22:13:07.532Z,9.18
2022-11-05T22:23:11.416Z,9.27
2022-11-05T22:33:12.935Z,9.31
2022-11-05T22:43:14.341Z,9.19
2022-11-05T22:53:15.598Z,9.05
2022-11-05T23:03:18.397Z,9.12
2022-11-05T23:13:20.053Z,9.21
2022-11-05T23:23:40.196Z,9.28
2022-11-05T23:33:41.399Z,9.16
2022-11-05T23:44:01.395Z,9.15
2022-11-05T23:54:03.356Z,9.18
